Time;durP1;ratioP1;P1;durP2;ratioP2;P2;SDS_P1;SDS_P2;PMS_P1;PMS_P2;Temp;Humidity;BMP_temperature;BMP_pressure;BME280_temperature;BME280_humidity;BME280_pressure;Samples;Min_cycle;Max_cycle;Signal;HPM_P1;HPM_P2
2023/10/31 00:01:31;;;;;;;;;;;;;;;;;;5051014;28;19986;-72
2023/10/31 00:03:58;;;;;;;;;;;;;;;;;;5050873;28;19996;-71
2023/10/31 00:06:23;;;;;;;;;;;;;;;;;;5050787;28;19989;-70
2023/10/31 00:08:49;;;;;;;;;;;;;;;;;;5050907;28;20095;-71
2023/10/31 00:11:15;;;;;;;;;;;;;;;;;;5051134;28;19990;-71
2023/10/31 00:13:41;;;;;;;;;;;;;;;;;;5048723;28;20067;-70
2023/10/31 00:16:07;;;;;;;;;;;;;;;;;;5050600;28;20021;-71
2023/10/31 00:18:33;;;;;;;;;;;;;;;;;;5050866;28;20335;-72
2023/10/31 00:20:59;;;;;;;;;;;;;;;;;;5050699;28;19990;-71
2023/10/31 00:23:25;;;;;;;;;;;;;;;;;;5050687;28;20127;-70
2023/10/31 00:25:51;;;;;;;;;;;;;;;;;;5050788;28;20039;-71
2023/10/31 00:28:17;;;;;;;;;;;;;;;;;;5032714;28;19990;-70
2023/10/31 00:30:43;;;;;;;;;;;;;;;;;;5048809;28;19986;-71
2023/10/31 00:33:09;;;;;;;;;;;;;;;;;;5050657;28;20010;-72
2023/10/31 00:35:35;;;;;;;;;;;;;;;;;;5050506;28;20052;-71
2023/10/31 00:38:01;;;;;;;;;;;;;;;;;;5051320;28;19997;-71
2023/10/31 00:40:27;;;;;;;;;;;;;;;;;;5054317;28;20453;-72
2023/10/31 00:42:53;;;;;;;;;;;;;;;;;;5054356;28;19986;-71
2023/10/31 00:45:19;;;;;;;;;;;;;;;;;;5054064;28;19989;-71
2023/10/31 00:47:45;;;;;;;;;;;;;;;;;;5052301;28;20541;-71
2023/10/31 00:50:11;;;;;;;;;;;;;;;;;;5054275;28;20002;-71
2023/10/31 00:52:37;;;;;;;;;;;;;;;;;;5053908;28;20100;-73
2023/10/31 00:55:03;;;;;;;;;;;;;;;;;;5054013;28;20104;-71
2023/10/31 00:57:29;;;;;;;;;;;;;;;;;;5053897;28;20402;-71
2023/10/31 00:59:55;;;;;;;;;;;;;;;;;;5053863;28;20438;-71
2023/10/31 01:02:21;;;;;;;;;;;;;;;;;;5051872;28;19990;-70
2023/10/31 01:04:47;;;;;;;;;;;;;;;;;;5053864;28;20115;-71
2023/10/31 01:07:16;;;;;;;;;;;;;;;;;;5053834;28;20449;-71
2023/10/31 01:09:43;;;;;;;;;;;;;;;;;;5053555;28;20354;-71
2023/10/31 01:12:10;;;;;;;;;;;;;;;;;;5053679;28;19996;-71
2023/10/31 01:14:36;;;;;;;;;;;;;;;;;;5053396;28;20233;-71
2023/10/31 01:17:02;;;;;;;;;;;;;;;;;;5053456;28;20425;-71
2023/10/31 01:19:28;;;;;;;;;;;;;;;;;;5052099;28;19999;-71
2023/10/31 01:21:54;;;;;;;;;;;;;;;;;;5053450;28;19989;-71
2023/10/31 01:24:20;;;;;;;;;;;;;;;;;;5053533;28;19989;-71
2023/10/31 01:26:46;;;;;;;;;;;;;;;;;;5053164;28;19989;-71
2023/10/31 01:29:12;;;;;;;;;;;;;;;;;;5053181;28;19992;-70
2023/10/31 01:31:38;;;;;;;;;;;;;;;;;;5053109;28;19993;-69
2023/10/31 01:34:04;;;;;;;;;;;;;;;;;;5053130;28;20465;-69
2023/10/31 01:36:30;;;;;;;;;;;;;;;;;;5051443;28;20018;-69
2023/10/31 01:38:59;;;;;;;;;;;;;;;;;;5053150;28;19997;-69
2023/10/31 01:41:25;;;;;;;;;;;;;;;;;;5053179;28;19985;-70
2023/10/31 01:43:50;;;;;;;;;;;;;;;;;;5052904;28;19985;-69
2023/10/31 01:46:16;;;;;;;;;;;;;;;;;;5052737;28;19986;-70
2023/10/31 01:48:42;;;;;;;;;;;;;;;;;;5052910;28;20001;-70
2023/10/31 01:51:08;;;;;;;;;;;;;;;;;;5052824;28;19989;-69
2023/10/31 01:53:34;;;;;;;;;;;;;;;;;;5050947;28;20036;-69
2023/10/31 01:56:03;;;;;;;;;;;;;;;;;;5052627;28;20010;-69
2023/10/31 01:58:29;;;;;;;;;;;;;;;;;;5052635;28;20457;-68
2023/10/31 02:00:55;;;;;;;;;;;;;;;;;;5052550;28;20008;-69
2023/10/31 02:03:21;;;;;;;;;;;;;;;;;;5052694;28;20040;-69
2023/10/31 02:05:47;;;;;;;;;;;;;;;;;;5052693;28;20032;-69
2023/10/31 02:08:13;;;;;;;;;;;;;;;;;;5050652;28;20350;-69
2023/10/31 02:10:39;;;;;;;;;;;;;;;;;;5052620;28;20076;-69
2023/10/31 02:13:05;;;;;;;;;;;;;;;;;;5052517;28;20040;-69
2023/10/31 02:15:31;;;;;;;;;;;;;;;;;;5052252;28;20010;-69
2023/10/31 02:17:57;;;;;;;;;;;;;;;;;;5052459;28;20476;-70
2023/10/31 02:20:23;;;;;;;;;;;;;;;;;;5052620;28;20029;-70
2023/10/31 02:22:49;;;;;;;;;;;;;;;;;;5050395;28;20044;-70
2023/10/31 02:25:15;;;;;;;;;;;;;;;;;;5052279;28;19985;-69
2023/10/31 02:27:41;;;;;;;;;;;;;;;;;;5052122;28;20028;-69
2023/10/31 02:30:07;;;;;;;;;;;;;;;;;;5052304;28;19992;-69
2023/10/31 02:32:33;;;;;;;;;;;;;;;;;;5052089;28;20006;-70
2023/10/31 02:34:59;;;;;;;;;;;;;;;;;;5051796;28;20057;-70
2023/10/31 02:37:25;;;;;;;;;;;;;;;;;;5052088;28;19990;-70
2023/10/31 02:39:51;;;;;;;;;;;;;;;;;;5051982;28;19993;-68
2023/10/31 02:42:17;;;;;;;;;;;;;;;;;;5050289;28;20000;-69
2023/10/31 02:44:43;;;;;;;;;;;;;;;;;;5051968;28;19996;-68
2023/10/31 02:47:09;;;;;;;;;;;;;;;;;;5051906;28;20351;-70
2023/10/31 02:49:35;;;;;;;;;;;;;;;;;;5051745;28;20036;-69
2023/10/31 02:52:01;;;;;;;;;;;;;;;;;;5051675;28;20442;-70
2023/10/31 02:54:27;;;;;;;;;;;;;;;;;;5051747;28;19993;-69
2023/10/31 02:56:53;;;;;;;;;;;;;;;;;;5049855;28;20082;-70
2023/10/31 02:59:19;;;;;;;;;;;;;;;;;;5051611;28;20427;-70
2023/10/31 03:01:44;;;;;;;;;;;;;;;;;;5051120;28;19993;-69
2023/10/31 03:04:10;;;;;;;;;;;;;;;;;;5051509;28;20025;-69
2023/10/31 03:06:36;;;;;;;;;;;;;;;;;;5051629;28;20072;-70
2023/10/31 03:09:02;;;;;;;;;;;;;;;;;;5051394;28;19997;-69
2023/10/31 03:11:28;;;;;;;;;;;;;;;;;;5051421;28;20014;-69
2023/10/31 03:13:56;;;;;;;;;;;;;;;;;;5049293;28;20022;-69
2023/10/31 03:16:22;;;;;;;;;;;;;;;;;;5051069;28;20470;-70
2023/10/31 03:18:48;;;;;;;;;;;;;;;;;;5051380;28;20017;-69
2023/10/31 03:21:14;;;;;;;;;;;;;;;;;;5051351;28;19990;-69
2023/10/31 03:23:40;;;;;;;;;;;;;;;;;;5051308;28;19985;-69
2023/10/31 03:26:06;;;;;;;;;;;;;;;;;;5051197;28;19992;-70
2023/10/31 03:28:32;;;;;;;;;;;;;;;;;;5051575;28;20001;-69
2023/10/31 03:30:58;;;;;;;;;;;;;;;;;;5049427;28;20000;-70
2023/10/31 03:33:24;;;;;;;;;;;;;;;;;;5051162;28;20009;-69
2023/10/31 03:35:50;;;;;;;;;;;;;;;;;;5050964;28;20017;-69
2023/10/31 03:38:16;;;;;;;;;;;;;;;;;;5051179;28;19990;-70
2023/10/31 03:40:42;;;;;;;;;;;;;;;;;;5051185;28;19986;-70
2023/10/31 03:43:08;;;;;;;;;;;;;;;;;;5051342;28;20025;-69
2023/10/31 03:45:34;;;;;;;;;;;;;;;;;;5049294;28;20021;-70
2023/10/31 03:48:00;;;;;;;;;;;;;;;;;;5050977;28;20009;-70
2023/10/31 03:50:26;;;;;;;;;;;;;;;;;;5051094;28;19986;-70
2023/10/31 03:52:52;;;;;;;;;;;;;;;;;;5032945;28;20466;-69
2023/10/31 03:55:18;;;;;;;;;;;;;;;;;;5050824;28;20029;-70
2023/10/31 03:57:44;;;;;;;;;;;;;;;;;;5051177;28;19993;-70
2023/10/31 04:00:11;;;;;;;;;;;;;;;;;;5050842;28;19986;-70
2023/10/31 04:02:37;;;;;;;;;;;;;;;;;;5050998;28;20438;-71
2023/10/31 04:05:03;;;;;;;;;;;;;;;;;;5049336;28;20008;-71
2023/10/31 04:07:29;;;;;;;;;;;;;;;;;;5050822;28;20004;-70
2023/10/31 04:09:56;;;;;;;;;;;;;;;;;;5050790;28;19990;-70
2023/10/31 04:12:22;;;;;;;;;;;;;;;;;;5050985;28;20370;-69
2023/10/31 04:14:48;;;;;;;;;;;;;;;;;;5053840;28;20022;-71
2023/10/31 04:17:14;;;;;;;;;;;;;;;;;;5054818;28;19993;-71
2023/10/31 04:19:40;;;;;;;;;;;;;;;;;;5052886;28;19994;-72
2023/10/31 04:22:06;;;;;;;;;;;;;;;;;;5054644;28;19986;-71
2023/10/31 04:24:32;;;;;;;;;;;;;;;;;;5054448;28;19986;-70
2023/10/31 04:26:57;;;;;;;;;;;;;;;;;;5054995;28;19994;-71
2023/10/31 04:29:23;;;;;;;;;;;;;;;;;;5054866;28;20480;-71
2023/10/31 04:31:49;;;;;;;;;;;;;;;;;;5054610;28;20000;-70
2023/10/31 04:34:15;;;;;;;;;;;;;;;;;;5052599;28;20366;-70
2023/10/31 04:36:41;;;;;;;;;;;;;;;;;;5054324;28;20020;-70
2023/10/31 04:39:07;;;;;;;;;;;;;;;;;;5054185;28;20044;-70
2023/10/31 04:41:33;;;;;;;;;;;;;;;;;;5054399;28;19997;-71
2023/10/31 04:43:59;;;;;;;;;;;;;;;;;;5054363;28;20002;-71
2023/10/31 04:46:28;;;;;;;;;;;;;;;;;;5054100;28;19986;-70
2023/10/31 04:48:55;;;;;;;;;;;;;;;;;;5054377;28;20069;-71
2023/10/31 04:51:20;;;;;;;;;;;;;;;;;;5044436;28;19994;-68
2023/10/31 04:53:47;;;;;;;;;;;;;;;;;;5037138;28;20464;-68
2023/10/31 04:56:16;;;;;;;;;;;;;;;;;;5033766;28;20010;-69
2023/10/31 04:58:42;;;;;;;;;;;;;;;;;;5051599;28;19998;-70
2023/10/31 05:01:08;;;;;;;;;;;;;;;;;;5053801;28;19997;-69
2023/10/31 05:03:34;;;;;;;;;;;;;;;;;;5034766;28;19994;-71
2023/10/31 05:06:00;;;;;;;;;;;;;;;;;;5033692;28;19990;-71
2023/10/31 05:08:25;;;;;;;;;;;;;;;;;;5033263;28;20101;-71
2023/10/31 05:10:51;;;;;;;;;;;;;;;;;;5033707;28;19993;-71
2023/10/31 05:13:17;;;;;;;;;;;;;;;;;;5033287;28;20026;-72
2023/10/31 05:15:43;;;;;;;;;;;;;;;;;;5046210;28;20106;-72
2023/10/31 05:18:09;;;;;;;;;;;;;;;;;;5038445;28;20051;-71
2023/10/31 05:20:35;;;;;;;;;;;;;;;;;;5033277;28;19986;-72
2023/10/31 05:23:01;;;;;;;;;;;;;;;;;;5015548;28;20008;-73
2023/10/31 05:25:27;;;;;;;;;;;;;;;;;;5033108;28;20037;-71
2023/10/31 05:27:53;;;;;;;;;;;;;;;;;;5038783;28;19993;-72
2023/10/31 05:30:19;;;;;;;;;;;;;;;;;;5053229;28;19997;-73
2023/10/31 05:32:45;;;;;;;;;;;;;;;;;;5042445;28;20018;-72
2023/10/31 05:35:11;;;;;;;;;;;;;;;;;;5033168;28;20067;-71
2023/10/31 05:37:37;;;;;;;;;;;;;;;;;;5032960;28;19997;-72
2023/10/31 05:40:03;;;;;;;;;;;;;;;;;;5033272;28;19990;-73
2023/10/31 05:42:29;;;;;;;;;;;;;;;;;;5032843;28;20055;-73
2023/10/31 05:44:56;;;;;;;;;;;;;;;;;;5035710;28;20080;-71
2023/10/31 05:47:22;;;;;;;;;;;;;;;;;;5046313;28;20001;-72
2023/10/31 05:49:48;;;;;;;;;;;;;;;;;;5033190;28;19996;-72
2023/10/31 05:52:14;;;;;;;;;;;;;;;;;;5032637;28;20390;-72
2023/10/31 05:54:40;;;;;;;;;;;;;;;;;;5032727;28;19990;-70
2023/10/31 05:57:06;;;;;;;;;;;;;;;;;;5032812;28;20002;-71
2023/10/31 05:59:32;;;;;;;;;;;;;;;;;;5032759;28;20024;-72
2023/10/31 06:01:58;;;;;;;;;;;;;;;;;;5034066;28;19990;-72
2023/10/31 06:04:27;;;;;;;;;;;;;;;;;;5011166;28;20112;-71
2023/10/31 06:06:53;;;;;;;;;;;;;;;;;;5032459;28;20012;-71
2023/10/31 06:09:19;;;;;;;;;;;;;;;;;;5032805;28;19994;-71
2023/10/31 06:11:47;;;;;;;;;;;;;;;;;;5032741;28;20036;-72
2023/10/31 06:14:13;;;;;;;;;;;;;;;;;;5012357;28;20042;-72
2023/10/31 06:16:39;;;;;;;;;;;;;;;;;;5012538;28;20018;-71
2023/10/31 06:19:05;;;;;;;;;;;;;;;;;;5030733;28;19997;-71
2023/10/31 06:21:31;;;;;;;;;;;;;;;;;;5034332;28;19989;-71
2023/10/31 06:23:57;;;;;;;;;;;;;;;;;;5034602;28;20017;-70
2023/10/31 06:26:22;;;;;;;;;;;;;;;;;;5034620;28;20005;-70
2023/10/31 06:28:48;;;;;;;;;;;;;;;;;;5032827;28;20001;-70
2023/10/31 06:31:14;;;;;;;;;;;;;;;;;;5030637;28;20077;-70
2023/10/31 06:33:40;;;;;;;;;;;;;;;;;;5032282;28;20044;-70
2023/10/31 06:36:06;;;;;;;;;;;;;;;;;;5027840;28;20160;-71
2023/10/31 06:38:32;;;;;;;;;;;;;;;;;;5013710;28;19990;-71
2023/10/31 06:40:58;;;;;;;;;;;;;;;;;;5030320;28;20029;-71
2023/10/31 06:43:24;;;;;;;;;;;;;;;;;;5030233;28;19986;-71
2023/10/31 06:45:50;;;;;;;;;;;;;;;;;;5042142;28;19994;-70
2023/10/31 06:48:16;;;;;;;;;;;;;;;;;;5050140;28;19986;-71
2023/10/31 06:50:42;;;;;;;;;;;;;;;;;;5029769;28;20104;-71
2023/10/31 06:53:08;;;;;;;;;;;;;;;;;;5026921;28;19994;-71
2023/10/31 06:55:34;;;;;;;;;;;;;;;;;;5031833;28;20009;-71
2023/10/31 06:58:00;;;;;;;;;;;;;;;;;;5030707;28;19996;-71
2023/10/31 07:00:26;;;;;;;;;;;;;;;;;;5031919;28;19986;-71
2023/10/31 07:02:52;;;;;;;;;;;;;;;;;;5048516;28;19994;-71
2023/10/31 07:05:20;;;;;;;;;;;;;;;;;;5051543;28;19986;-72
2023/10/31 07:07:46;;;;;;;;;;;;;;;;;;5051685;28;19996;-71
2023/10/31 07:10:12;;;;;;;;;;;;;;;;;;5051543;28;19985;-71
2023/10/31 07:12:38;;;;;;;;;;;;;;;;;;5039544;28;20051;-72
2023/10/31 07:15:04;;;;;;;;;;;;;;;;;;5031037;28;20033;-72
2023/10/31 07:17:30;;;;;;;;;;;;;;;;;;5031303;28;20041;-72
2023/10/31 07:19:56;;;;;;;;;;;;;;;;;;5044286;28;20033;-72
2023/10/31 07:22:24;;;;;;;;;;;;;;;;;;5051403;28;19992;-71
2023/10/31 07:24:50;;;;;;;;;;;;;;;;;;5030657;28;20142;-70
2023/10/31 07:27:16;;;;;;;;;;;;;;;;;;5031271;28;20374;-72
2023/10/31 07:29:42;;;;;;;;;;;;;;;;;;5021645;28;19997;-72
2023/10/31 07:32:08;;;;;;;;;;;;;;;;;;5024760;28;20032;-65
2023/10/31 07:34:34;;;;;;;;;;;;;;;;;;5031232;28;20386;-65
2023/10/31 07:36:59;;;;;;;;;;;;;;;;;;5011759;28;20425;-65
2023/10/31 07:39:27;;;;;;;;;;;;;;;;;;5029888;28;20516;-66
2023/10/31 07:41:53;;;;;;;;;;;;;;;;;;5032162;28;20025;-66
2023/10/31 07:44:19;;;;;;;;;;;;;;;;;;5031393;28;20417;-65
2023/10/31 07:46:45;;;;;;;;;;;;;;;;;;5030739;28;19990;-66
2023/10/31 07:49:11;;;;;;;;;;;;;;;;;;5015449;28;19997;-68
2023/10/31 07:51:37;;;;;;;;;;;;;;;;;;5017423;28;19994;-80
2023/10/31 07:54:04;;;;;;;;;;;;;;;;;;5026516;28;19997;-80
2023/10/31 07:56:30;;;;;;;;;;;;;;;;;;5016321;28;20068;-73
2023/10/31 07:58:55;;;;;;;;;;;;;;;;;;5015964;28;20030;-71
2023/10/31 08:01:21;;;;;;;;;;;;;;;;;;5028331;28;20025;-73
2023/10/31 08:03:47;;;;;;;;;;;;;;;;;;5050190;28;19990;-74
2023/10/31 08:06:13;;;;;;;;;;;;;;;;;;5037192;28;19997;-74
2023/10/31 08:08:39;;;;;;;;;;;;;;;;;;5034799;28;20040;-67
2023/10/31 08:11:05;;;;;;;;;;;;;;;;;;5033344;28;20057;-68
2023/10/31 08:13:31;;;;;;;;;;;;;;;;;;5033158;28;20060;-67
2023/10/31 08:15:57;;;;;;;;;;;;;;;;;;5031610;28;20647;-68
2023/10/31 08:18:23;;;;;;;;;;;;;;;;;;5031660;28;20001;-66
2023/10/31 08:20:50;;;;;;;;;;;;;;;;;;5032434;28;20033;-66
2023/10/31 08:23:16;;;;;;;;;;;;;;;;;;5028969;28;20040;-65
2023/10/31 08:25:42;;;;;;;;;;;;;;;;;;5033865;28;19994;-65
2023/10/31 08:28:08;;;;;;;;;;;;;;;;;;5034246;28;19990;-65
2023/10/31 08:30:35;;;;;;;;;;;;;;;;;;5034578;28;19990;-65
2023/10/31 08:33:00;;;;;;;;;;;;;;;;;;5034299;28;20006;-66
2023/10/31 08:35:27;;;;;;;;;;;;;;;;;;5033492;28;20021;-66
2023/10/31 08:37:53;;;;;;;;;;;;;;;;;;5034305;28;19990;-65
2023/10/31 08:40:19;;;;;;;;;;;;;;;;;;5034310;28;20624;-65
2023/10/31 08:42:45;;;;;;;;;;;;;;;;;;5034855;28;19998;-65
2023/10/31 08:45:11;;;;;;;;;;;;;;;;;;5034487;28;19997;-65
2023/10/31 08:47:37;;;;;;;;;;;;;;;;;;5034465;28;20351;-66
2023/10/31 08:50:03;;;;;;;;;;;;;;;;;;5034365;28;20449;-65
2023/10/31 08:52:31;;;;;;;;;;;;;;;;;;5034156;28;19986;-64
2023/10/31 08:54:57;;;;;;;;;;;;;;;;;;5033676;28;19998;-67
2023/10/31 08:57:22;;;;;;;;;;;;;;;;;;5033166;28;20082;-65
2023/10/31 08:59:49;;;;;;;;;;;;;;;;;;5033606;28;19998;-65
2023/10/31 09:02:15;;;;;;;;;;;;;;;;;;5034211;28;19990;-66
2023/10/31 09:04:40;;;;;;;;;;;;;;;;;;5034028;28;20373;-66
2023/10/31 09:07:06;;;;;;;;;;;;;;;;;;5033959;28;19990;-65
2023/10/31 09:09:32;;;;;;;;;;;;;;;;;;5033979;28;20402;-66
2023/10/31 09:11:58;;;;;;;;;;;;;;;;;;5033979;28;19986;-66
2023/10/31 09:14:24;;;;;;;;;;;;;;;;;;5033662;28;20390;-66
2023/10/31 09:16:50;;;;;;;;;;;;;;;;;;5034017;28;20021;-64
2023/10/31 09:19:16;;;;;;;;;;;;;;;;;;5034175;28;20102;-66
2023/10/31 09:21:42;;;;;;;;;;;;;;;;;;5033713;28;20449;-66
2023/10/31 09:24:08;;;;;;;;;;;;;;;;;;5033731;28;19990;-66
2023/10/31 09:26:34;;;;;;;;;;;;;;;;;;5033420;28;19986;-65
2023/10/31 09:28:59;;;;;;;;;;;;;;;;;;5033616;28;19993;-66
2023/10/31 09:31:25;;;;;;;;;;;;;;;;;;5033453;28;19985;-66
2023/10/31 09:33:52;;;;;;;;;;;;;;;;;;5033743;28;20013;-66
2023/10/31 09:36:18;;;;;;;;;;;;;;;;;;5033413;28;20036;-66
2023/10/31 09:38:44;;;;;;;;;;;;;;;;;;5033309;28;20343;-65
2023/10/31 09:41:10;;;;;;;;;;;;;;;;;;5033278;28;20482;-66
2023/10/31 09:43:36;;;;;;;;;;;;;;;;;;5033802;28;20085;-64
2023/10/31 09:46:03;;;;;;;;;;;;;;;;;;5033283;28;19990;-64
2023/10/31 09:48:29;;;;;;;;;;;;;;;;;;5033570;28;20386;-66
2023/10/31 09:50:55;;;;;;;;;;;;;;;;;;5033056;28;19986;-64
2023/10/31 09:53:21;;;;;;;;;;;;;;;;;;5031709;28;20458;-65
2023/10/31 09:55:46;;;;;;;;;;;;;;;;;;5033069;28;20052;-66
2023/10/31 09:58:12;;;;;;;;;;;;;;;;;;5033208;28;20088;-66
2023/10/31 10:00:40;;;;;;;;;;;;;;;;;;5033198;28;19990;-66
2023/10/31 10:03:06;;;;;;;;;;;;;;;;;;5033143;28;19987;-65
2023/10/31 10:05:32;;;;;;;;;;;;;;;;;;5032981;28;19996;-65
2023/10/31 10:07:58;;;;;;;;;;;;;;;;;;5032958;28;19990;-66
2023/10/31 10:10:23;;;;;;;;;;;;;;;;;;5032783;28;19993;-65
2023/10/31 10:12:49;;;;;;;;;;;;;;;;;;5032831;28;20013;-66
2023/10/31 10:15:15;;;;;;;;;;;;;;;;;;5032572;28;20120;-66
2023/10/31 10:17:41;;;;;;;;;;;;;;;;;;5032640;28;20289;-66
2023/10/31 10:20:10;;;;;;;;;;;;;;;;;;5032747;28;19990;-65
2023/10/31 10:22:36;;;;;;;;;;;;;;;;;;5033002;28;19990;-66
2023/10/31 10:25:02;;;;;;;;;;;;;;;;;;5032397;28;19997;-65
2023/10/31 10:27:28;;;;;;;;;;;;;;;;;;5032699;28;20001;-67
2023/10/31 10:29:54;;;;;;;;;;;;;;;;;;5032611;28;20044;-67
2023/10/31 10:32:20;;;;;;;;;;;;;;;;;;5032328;28;20373;-67
2023/10/31 10:34:46;;;;;;;;;;;;;;;;;;5032251;28;20501;-67
2023/10/31 10:37:11;;;;;;;;;;;;;;;;;;5032400;28;20014;-66
2023/10/31 10:39:37;;;;;;;;;;;;;;;;;;5032649;28;20044;-67
2023/10/31 10:42:03;;;;;;;;;;;;;;;;;;5032106;28;20508;-67
2023/10/31 10:44:29;;;;;;;;;;;;;;;;;;5032296;28;20056;-68
2023/10/31 10:46:55;;;;;;;;;;;;;;;;;;5032022;28;19990;-66
2023/10/31 10:49:21;;;;;;;;;;;;;;;;;;5032013;28;19990;-69
2023/10/31 10:51:48;;;;;;;;;;;;;;;;;;5014451;28;19994;-66
2023/10/31 10:54:14;;;;;;;;;;;;;;;;;;5014381;28;20511;-67
2023/10/31 10:56:40;;;;;;;;;;;;;;;;;;5032103;28;20024;-66
2023/10/31 10:59:06;;;;;;;;;;;;;;;;;;5032093;28;19990;-69
2023/10/31 11:01:32;;;;;;;;;;;;;;;;;;5031715;28;20438;-67
2023/10/31 11:03:58;;;;;;;;;;;;;;;;;;5031939;28;19990;-66
2023/10/31 11:06:24;;;;;;;;;;;;;;;;;;5031900;28;20036;-67
2023/10/31 11:08:50;;;;;;;;;;;;;;;;;;5031695;28;20493;-64
2023/10/31 11:11:16;;;;;;;;;;;;;;;;;;5032070;28;19989;-66
2023/10/31 11:13:41;;;;;;;;;;;;;;;;;;5031768;28;20549;-67
2023/10/31 11:16:08;;;;;;;;;;;;;;;;;;5031621;28;20068;-65
2023/10/31 11:18:35;;;;;;;;;;;;;;;;;;5031794;28;20041;-65
2023/10/31 11:21:01;;;;;;;;;;;;;;;;;;5031585;28;20033;-65
2023/10/31 11:23:26;;;;;;;;;;;;;;;;;;5031101;28;20417;-66
2023/10/31 11:25:53;;;;;;;;;;;;;;;;;;5031666;28;19990;-65
2023/10/31 11:28:19;;;;;;;;;;;;;;;;;;5031611;28;20077;-65
2023/10/31 11:30:45;;;;;;;;;;;;;;;;;;5031671;28;20084;-65
2023/10/31 11:33:11;;;;;;;;;;;;;;;;;;5031549;28;20001;-65
2023/10/31 11:35:37;;;;;;;;;;;;;;;;;;5031422;28;20108;-64
2023/10/31 11:38:06;;;;;;;;;;;;;;;;;;5031388;28;20041;-65
2023/10/31 11:40:32;;;;;;;;;;;;;;;;;;5031798;28;19994;-66
2023/10/31 11:42:58;;;;;;;;;;;;;;;;;;5031536;28;20608;-66
2023/10/31 11:45:24;;;;;;;;;;;;;;;;;;5031423;28;20009;-65
2023/10/31 11:47:50;;;;;;;;;;;;;;;;;;5031326;28;20013;-66
2023/10/31 11:50:16;;;;;;;;;;;;;;;;;;5031176;28;20101;-65
2023/10/31 11:52:42;;;;;;;;;;;;;;;;;;5031386;28;20012;-66
2023/10/31 11:55:08;;;;;;;;;;;;;;;;;;5031364;28;19990;-65
2023/10/31 11:57:33;;;;;;;;;;;;;;;;;;5031307;28;20008;-66
2023/10/31 11:59:59;;;;;;;;;;;;;;;;;;5031282;28;20466;-65
2023/10/31 12:02:25;;;;;;;;;;;;;;;;;;5031236;28;19990;-65
2023/10/31 12:04:51;;;;;;;;;;;;;;;;;;5031128;28;20078;-65
2023/10/31 12:07:17;;;;;;;;;;;;;;;;;;5031531;28;19994;-65
2023/10/31 12:09:43;;;;;;;;;;;;;;;;;;5031107;28;19990;-65
2023/10/31 12:12:09;;;;;;;;;;;;;;;;;;5031155;28;19994;-65
2023/10/31 12:14:35;;;;;;;;;;;;;;;;;;5030800;28;20261;-65
2023/10/31 12:17:01;;;;;;;;;;;;;;;;;;5031075;28;20013;-65
2023/10/31 12:19:27;;;;;;;;;;;;;;;;;;5030948;28;19986;-65
2023/10/31 12:21:54;;;;;;;;;;;;;;;;;;5031225;28;19994;-65
2023/10/31 12:24:20;;;;;;;;;;;;;;;;;;5031030;28;20073;-65
2023/10/31 12:26:46;;;;;;;;;;;;;;;;;;5031367;28;20449;-65
2023/10/31 12:29:12;;;;;;;;;;;;;;;;;;5031265;28;20032;-63
2023/10/31 12:31:38;;;;;;;;;;;;;;;;;;5031327;28;19986;-65
2023/10/31 12:34:04;;;;;;;;;;;;;;;;;;5031425;28;20426;-64
2023/10/31 12:36:30;;;;;;;;;;;;;;;;;;5034189;28;20018;-65
2023/10/31 12:38:56;;;;;;;;;;;;;;;;;;5034630;28;19990;-65
2023/10/31 12:41:22;;;;;;;;;;;;;;;;;;5034666;28;20037;-64
2023/10/31 12:43:47;;;;;;;;;;;;;;;;;;5034424;28;19990;-65
2023/10/31 12:46:13;;;;;;;;;;;;;;;;;;5034531;28;20025;-64
2023/10/31 12:48:39;;;;;;;;;;;;;;;;;;5034600;28;19986;-65
2023/10/31 12:51:05;;;;;;;;;;;;;;;;;;5034224;28;20044;-64
2023/10/31 12:53:31;;;;;;;;;;;;;;;;;;5034600;28;20358;-65
2023/10/31 12:55:57;;;;;;;;;;;;;;;;;;5034120;28;20041;-65
2023/10/31 12:58:23;;;;;;;;;;;;;;;;;;5016212;28;19997;-64
2023/10/31 13:00:49;;;;;;;;;;;;;;;;;;5034003;28;19990;-64
2023/10/31 13:03:15;;;;;;;;;;;;;;;;;;5034033;28;20013;-64
2023/10/31 13:05:41;;;;;;;;;;;;;;;;;;5034030;28;20331;-64
2023/10/31 13:08:07;;;;;;;;;;;;;;;;;;5034068;28;20383;-64
2023/10/31 13:10:33;;;;;;;;;;;;;;;;;;5033923;28;19986;-65
2023/10/31 13:12:59;;;;;;;;;;;;;;;;;;5033824;28;19993;-64
2023/10/31 13:15:25;;;;;;;;;;;;;;;;;;5033646;28;20164;-63
2023/10/31 13:17:51;;;;;;;;;;;;;;;;;;5033782;28;20001;-64
2023/10/31 13:20:17;;;;;;;;;;;;;;;;;;5033693;28;19990;-64
2023/10/31 13:22:43;;;;;;;;;;;;;;;;;;5033571;28;19996;-65
2023/10/31 13:25:10;;;;;;;;;;;;;;;;;;5034148;28;20040;-64
2023/10/31 13:27:36;;;;;;;;;;;;;;;;;;5033849;28;19990;-64
2023/10/31 13:30:02;;;;;;;;;;;;;;;;;;5033645;28;20044;-64
2023/10/31 13:32:28;;;;;;;;;;;;;;;;;;5033607;28;20450;-63
2023/10/31 13:34:54;;;;;;;;;;;;;;;;;;5033812;28;20034;-64
2023/10/31 13:37:20;;;;;;;;;;;;;;;;;;5033645;28;20068;-64
2023/10/31 13:39:46;;;;;;;;;;;;;;;;;;5033496;28;19986;-64
2023/10/31 13:42:13;;;;;;;;;;;;;;;;;;5033590;28;20036;-64
2023/10/31 13:44:39;;;;;;;;;;;;;;;;;;5033189;28;20049;-64
2023/10/31 13:47:05;;;;;;;;;;;;;;;;;;5033260;28;20530;-65
2023/10/31 13:49:31;;;;;;;;;;;;;;;;;;5033462;28;19990;-63
2023/10/31 13:51:57;;;;;;;;;;;;;;;;;;5033119;28;20350;-64
2023/10/31 13:54:23;;;;;;;;;;;;;;;;;;5033160;28;19991;-64
2023/10/31 13:56:49;;;;;;;;;;;;;;;;;;5032913;28;20014;-64
2023/10/31 13:59:15;;;;;;;;;;;;;;;;;;5033060;28;20157;-64
2023/10/31 14:01:40;;;;;;;;;;;;;;;;;;5033004;28;19994;-64
2023/10/31 14:04:07;;;;;;;;;;;;;;;;;;5033087;28;20022;-63
2023/10/31 14:06:33;;;;;;;;;;;;;;;;;;5032895;28;20008;-65
2023/10/31 14:08:59;;;;;;;;;;;;;;;;;;5032712;28;20439;-64
2023/10/31 14:11:24;;;;;;;;;;;;;;;;;;5032817;28;20029;-64
2023/10/31 14:13:50;;;;;;;;;;;;;;;;;;5032494;28;20069;-64
2023/10/31 14:16:16;;;;;;;;;;;;;;;;;;5032610;28;20010;-64
2023/10/31 14:18:42;;;;;;;;;;;;;;;;;;5032798;28;19997;-68
2023/10/31 14:21:08;;;;;;;;;;;;;;;;;;5032739;28;19994;-65
2023/10/31 14:23:34;;;;;;;;;;;;;;;;;;5032711;28;19992;-65
2023/10/31 14:26:00;;;;;;;;;;;;;;;;;;5032596;28;20394;-65
2023/10/31 14:28:26;;;;;;;;;;;;;;;;;;5032548;28;19996;-65
2023/10/31 14:30:52;;;;;;;;;;;;;;;;;;5032266;28;20084;-64
2023/10/31 14:33:18;;;;;;;;;;;;;;;;;;5032537;28;20020;-64
2023/10/31 14:35:44;;;;;;;;;;;;;;;;;;5032248;28;20021;-65
2023/10/31 14:38:10;;;;;;;;;;;;;;;;;;5032562;28;19994;-66
2023/10/31 14:40:35;;;;;;;;;;;;;;;;;;5032497;28;20330;-64
2023/10/31 14:43:01;;;;;;;;;;;;;;;;;;5032575;28;19998;-64
2023/10/31 14:45:27;;;;;;;;;;;;;;;;;;5032183;28;19990;-64
2023/10/31 14:47:53;;;;;;;;;;;;;;;;;;5032077;28;20438;-65
2023/10/31 14:50:22;;;;;;;;;;;;;;;;;;5032099;28;20013;-65
2023/10/31 14:52:48;;;;;;;;;;;;;;;;;;5032296;28;20011;-63
2023/10/31 14:55:14;;;;;;;;;;;;;;;;;;5031956;28;20442;-65
2023/10/31 14:57:40;;;;;;;;;;;;;;;;;;5031286;28;20076;-64
2023/10/31 15:00:07;;;;;;;;;;;;;;;;;;5031923;28;20407;-65
2023/10/31 15:02:34;;;;;;;;;;;;;;;;;;5032235;28;20084;-64
2023/10/31 15:05:00;;;;;;;;;;;;;;;;;;5031849;28;19986;-64
2023/10/31 15:07:26;;;;;;;;;;;;;;;;;;5031846;28;19994;-65
2023/10/31 15:09:52;;;;;;;;;;;;;;;;;;5031869;28;19997;-64
2023/10/31 15:12:17;;;;;;;;;;;;;;;;;;5032159;28;19986;-64
2023/10/31 15:14:43;;;;;;;;;;;;;;;;;;5031514;28;20107;-65
2023/10/31 15:17:09;;;;;;;;;;;;;;;;;;5032008;28;20028;-65
2023/10/31 15:19:38;;;;;;;;;;;;;;;;;;5031087;28;20326;-65
2023/10/31 15:22:04;;;;;;;;;;;;;;;;;;5031392;28;20064;-64
2023/10/31 15:24:30;;;;;;;;;;;;;;;;;;5031489;28;19986;-66
2023/10/31 15:26:56;;;;;;;;;;;;;;;;;;5031588;28;20017;-64
2023/10/31 15:29:22;;;;;;;;;;;;;;;;;;5031637;28;20029;-64
2023/10/31 15:31:53;;;;;;;;;;;;;;;;;;5031476;28;20450;-65
2023/10/31 15:34:19;;;;;;;;;;;;;;;;;;5031543;28;19990;-64
2023/10/31 15:36:45;;;;;;;;;;;;;;;;;;5031454;28;20020;-64
2023/10/31 15:39:12;;;;;;;;;;;;;;;;;;5031280;28;19994;-65
2023/10/31 15:41:38;;;;;;;;;;;;;;;;;;5031326;28;19991;-63
2023/10/31 15:44:04;;;;;;;;;;;;;;;;;;5031413;28;20001;-64
2023/10/31 15:46:30;;;;;;;;;;;;;;;;;;5031238;28;19990;-65
2023/10/31 15:48:56;;;;;;;;;;;;;;;;;;5031217;28;19986;-65
2023/10/31 15:51:22;;;;;;;;;;;;;;;;;;5031267;28;19990;-64
2023/10/31 15:53:48;;;;;;;;;;;;;;;;;;5031157;28;19986;-63
2023/10/31 15:56:13;;;;;;;;;;;;;;;;;;5030962;28;20014;-64
2023/10/31 15:58:39;;;;;;;;;;;;;;;;;;5031245;28;19986;-65
2023/10/31 16:01:05;;;;;;;;;;;;;;;;;;5031033;28;20439;-64
2023/10/31 16:03:31;;;;;;;;;;;;;;;;;;5031464;28;19998;-65
2023/10/31 16:05:57;;;;;;;;;;;;;;;;;;5031211;28;20352;-64
2023/10/31 16:08:23;;;;;;;;;;;;;;;;;;5032244;28;20493;-64
2023/10/31 16:10:49;;;;;;;;;;;;;;;;;;5034885;28;20005;-64
2023/10/31 16:13:15;;;;;;;;;;;;;;;;;;5034859;28;19998;-65
2023/10/31 16:15:41;;;;;;;;;;;;;;;;;;5034852;28;20018;-65
2023/10/31 16:18:07;;;;;;;;;;;;;;;;;;5034960;28;20077;-64
2023/10/31 16:20:34;;;;;;;;;;;;;;;;;;5034624;28;19994;-66
2023/10/31 16:23:00;;;;;;;;;;;;;;;;;;5034743;28;19993;-64
2023/10/31 16:25:26;;;;;;;;;;;;;;;;;;5034755;28;19990;-65
2023/10/31 16:27:52;;;;;;;;;;;;;;;;;;5034782;28;20077;-64
2023/10/31 16:30:18;;;;;;;;;;;;;;;;;;5034695;28;20088;-64
2023/10/31 16:32:44;;;;;;;;;;;;;;;;;;5034465;28;20492;-65
2023/10/31 16:35:10;;;;;;;;;;;;;;;;;;5034490;28;20073;-65
2023/10/31 16:37:35;;;;;;;;;;;;;;;;;;5034629;28;20005;-65